Ashwaubenon, Wisconsin
Current Conditions -  °F | °C
As of 9:32 PM on Saturday 22 Nov 2014 (Local Time) from KGRB Reporting Station
Moderate Fog Moderate Fog  
Wind Chill:   Ceiling: 300
Heat Index:   Visibility: 0.5mi
Dew Point:   Wind: 0mph
Humidity: 96%   Direction: NA
Pressure: 29.77"   Gusts: NA
Location:  44.48°N, 88.07°W
Report Text: KGRB 230332Z 00000KT 1/2SM FG BKN003 OVC026 04/03 A2977 RMK AO2 T00390033 RVRNO
Loading
Personal Weather Stations






























Interactive Weather Map New forecast layout! Learn more

10-Day Weather Forecast

Advertisements
Track Severe Weather on mobile